createdAt,value
2019-05-07T00:04:19.101Z,52.79
2019-05-07T00:09:23.091Z,52.79
2019-05-07T00:14:24.314Z,52.79
2019-05-07T00:19:26.115Z,52.83
2019-05-07T00:24:27.677Z,52.97
2019-05-07T00:29:29.269Z,53.07
2019-05-07T00:34:37.074Z,53.18
2019-05-07T00:40:10.439Z,53.33
2019-05-07T00:45:21.675Z,53.42
2019-05-07T00:50:28.231Z,53.45
2019-05-07T00:55:29.923Z,53.50
2019-05-07T01:00:33.281Z,53.58
2019-05-07T01:05:35.121Z,53.55
2019-05-07T01:10:36.816Z,53.57
2019-05-07T01:15:38.507Z,53.55
2019-05-07T01:20:42.334Z,53.47
2019-05-07T01:25:43.676Z,53.54
2019-05-07T01:30:45.358Z,53.52
2019-05-07T01:36:05.353Z,53.61
2019-05-07T01:41:07.048Z,53.67
2019-05-07T01:46:08.837Z,53.73
2019-05-07T01:51:12.685Z,53.73
2019-05-07T01:56:14.003Z,53.78
2019-05-07T02:01:15.721Z,53.79
2019-05-07T02:06:25.515Z,53.84
2019-05-07T02:11:32.813Z,53.83
2019-05-07T02:16:34.687Z,53.98
2019-05-07T02:21:36.259Z,54.08
2019-05-07T02:26:37.987Z,54.14
2019-05-07T02:31:39.678Z,54.29
2019-05-07T02:36:43.309Z,54.47
2019-05-07T02:41:45.537Z,54.43
2019-05-07T02:47:13.074Z,54.41
2019-05-07T02:52:23.620Z,54.42
2019-05-07T02:57:26.348Z,54.53
2019-05-07T03:02:28.085Z,54.55
2019-05-07T03:07:29.791Z,54.66
2019-05-07T03:12:33.525Z,54.73
2019-05-07T03:17:34.954Z,54.84
2019-05-07T03:22:36.521Z,54.85
2019-05-07T03:27:38.206Z,54.96
2019-05-07T03:32:47.684Z,55.06
2019-05-07T03:37:50.075Z,55.10
2019-05-07T03:42:53.572Z,55.19
2019-05-07T03:48:06.041Z,55.33
2019-05-07T03:53:07.639Z,55.42
2019-05-07T03:58:09.316Z,55.53
2019-05-07T04:03:13.882Z,55.59
2019-05-07T04:08:14.516Z,55.60
2019-05-07T04:13:16.191Z,55.61
2019-05-07T04:18:17.890Z,55.70
2019-05-07T04:23:19.613Z,55.78
2019-05-07T04:28:53.698Z,55.87
2019-05-07T04:33:56.037Z,55.99
2019-05-07T04:38:57.729Z,56.15
2019-05-07T04:43:59.303Z,56.36
2019-05-07T04:49:03.773Z,56.28
2019-05-07T04:54:04.707Z,56.31
2019-05-07T04:59:06.485Z,56.41
2019-05-07T05:04:24.258Z,56.59
2019-05-07T05:09:12.609Z,56.61
2019-05-07T05:14:14.388Z,56.65
2019-05-07T05:19:15.966Z,56.77
2019-05-07T05:24:29.313Z,56.83
2019-05-07T05:29:32.364Z,56.92
2019-05-07T05:34:34.342Z,56.89
2019-05-07T05:39:36.003Z,56.99
2019-05-07T05:44:37.694Z,57.08
2019-05-07T05:49:39.800Z,57.27
2019-05-07T05:54:57.575Z,57.28
2019-05-07T06:00:27.449Z,57.40
2019-05-07T06:05:47.320Z,57.46
2019-05-07T06:11:02.535Z,57.66
2019-05-07T06:16:08.862Z,57.68
2019-05-07T06:21:24.138Z,57.74
2019-05-07T06:26:26.096Z,57.73
2019-05-07T06:31:27.740Z,57.86
2019-05-07T06:36:32.887Z,58.15
2019-05-07T06:41:52.969Z,58.42
2019-05-07T06:46:54.534Z,58.65
2019-05-07T06:51:56.242Z,58.69
2019-05-07T06:56:57.962Z,58.68
2019-05-07T07:02:28.250Z,58.80
2019-05-07T07:07:55.248Z,58.96
2019-05-07T07:12:56.934Z,59.11
2019-05-07T07:17:58.487Z,59.30
2019-05-07T07:23:02.390Z,59.53
2019-05-07T07:28:03.709Z,59.74
2019-05-07T07:33:06.632Z,59.90
2019-05-07T07:38:26.217Z,59.88
2019-05-07T07:43:27.928Z,60.06
2019-05-07T07:48:31.904Z,60.16
2019-05-07T07:53:35.412Z,60.17
2019-05-07T07:58:49.799Z,60.14
2019-05-07T08:03:52.296Z,59.94
2019-05-07T08:08:54.005Z,60.05
2019-05-07T08:13:55.718Z,60.22
2019-05-07T08:18:57.302Z,60.17
2019-05-07T08:23:58.840Z,59.99
2019-05-07T08:29:02.771Z,59.84
2019-05-07T08:34:16.030Z,59.72
2019-05-07T08:39:17.741Z,59.83
2019-05-07T08:44:22.391Z,59.55
2019-05-07T08:49:35.783Z,59.43
2019-05-07T08:54:29.381Z,59.43
2019-05-07T08:59:32.402Z,59.45
2019-05-07T09:04:34.100Z,59.41
2019-05-07T09:09:35.780Z,59.27
2019-05-07T09:14:37.459Z,59.12
2019-05-07T09:19:50.012Z,58.93
2019-05-07T09:24:42.732Z,59.23
2019-05-07T09:29:53.838Z,59.47
2019-05-07T09:34:55.917Z,59.55
2019-05-07T09:39:57.617Z,59.69
2019-05-07T09:44:59.210Z,59.34
2019-05-07T09:50:05.482Z,59.13
2019-05-07T09:55:14.146Z,58.93
2019-05-07T10:00:08.979Z,58.49
2019-05-07T10:05:11.481Z,58.11
2019-05-07T10:10:13.623Z,57.97
2019-05-07T10:15:16.062Z,58.15
2019-05-07T10:20:22.401Z,58.21
2019-05-07T10:25:22.597Z,58.33
2019-05-07T10:30:24.449Z,58.14
2019-05-07T10:35:26.290Z,57.92
2019-05-07T10:40:28.149Z,57.59
2019-05-07T10:45:47.242Z,57.39
2019-05-07T10:50:51.725Z,57.42
2019-05-07T10:55:53.728Z,57.51
2019-05-07T11:00:56.009Z,57.63
2019-05-07T11:05:58.058Z,57.64
2019-05-07T11:10:59.777Z,57.62
2019-05-07T11:16:06.873Z,56.99
2019-05-07T11:21:08.761Z,56.47
2019-05-07T11:26:11.780Z,56.02
2019-05-07T11:31:13.623Z,55.68
2019-05-07T11:36:15.474Z,56.09
2019-05-07T11:41:22.910Z,56.07
2019-05-07T11:46:32.756Z,56.38
2019-05-07T11:51:45.409Z,56.36
2019-05-07T11:56:46.977Z,55.50
2019-05-07T12:01:53.189Z,55.77
2019-05-07T12:06:54.750Z,54.36
2019-05-07T12:11:56.364Z,54.30
2019-05-07T12:16:57.965Z,54.57
2019-05-07T12:21:59.788Z,53.27
2019-05-07T12:27:02.649Z,52.88
2019-05-07T12:32:13.724Z,53.92
2019-05-07T12:37:15.280Z,54.63
2019-05-07T12:42:16.939Z,55.04
2019-05-07T12:47:18.489Z,55.11
2019-05-07T12:52:35.582Z,54.99
2019-05-07T12:57:37.321Z,55.00
2019-05-07T13:02:44.348Z,54.84
2019-05-07T13:07:50.277Z,54.53
2019-05-07T13:12:52.703Z,54.16
2019-05-07T13:17:54.470Z,53.96
2019-05-07T13:22:56.195Z,53.87
2019-05-07T13:27:57.836Z,53.74
2019-05-07T13:32:59.498Z,53.73
2019-05-07T13:38:23.711Z,53.59
2019-05-07T13:43:28.545Z,53.27
2019-05-07T13:48:31.709Z,51.97
2019-05-07T13:53:33.572Z,50.79
2019-05-07T13:58:35.298Z,50.17
2019-05-07T14:03:36.992Z,50.19
2019-05-07T14:08:42.340Z,49.99
2019-05-07T14:13:44.070Z,50.22
2019-05-07T14:18:45.804Z,50.57
2019-05-07T14:23:47.408Z,51.00
2019-05-07T14:28:48.988Z,50.71
2019-05-07T14:34:02.878Z,51.19
2019-05-07T14:39:06.419Z,51.29
2019-05-07T14:44:13.383Z,51.30
2019-05-07T14:49:15.051Z,51.39
2019-05-07T14:54:18.332Z,51.26
2019-05-07T14:59:20.108Z,50.82
2019-05-07T15:04:22.214Z,50.48
2019-05-07T15:09:23.899Z,49.41
2019-05-07T15:14:25.574Z,49.77
2019-05-07T15:19:27.271Z,50.06
2019-05-07T15:24:28.963Z,50.31
2019-05-07T15:29:31.881Z,50.47
2019-05-07T15:34:33.646Z,50.53
2019-05-07T15:39:36.773Z,50.56
2019-05-07T15:44:38.440Z,50.51
2019-05-07T15:49:41.780Z,50.50
2019-05-07T15:54:43.814Z,50.45
2019-05-07T15:59:45.379Z,50.32
2019-05-07T16:04:47.027Z,50.12
2019-05-07T16:09:48.714Z,50.10
2019-05-07T16:14:52.311Z,50.01
2019-05-07T16:19:55.195Z,49.86
2019-05-07T16:24:56.915Z,49.69
2019-05-07T16:29:58.468Z,49.50
2019-05-07T16:35:00.063Z,49.27
2019-05-07T16:40:04.568Z,49.01
2019-05-07T16:45:05.563Z,48.90
2019-05-07T16:50:07.731Z,49.04
2019-05-07T16:55:12.080Z,49.11
2019-05-07T17:00:19.617Z,49.11
2019-05-07T17:05:22.853Z,49.07
2019-05-07T17:10:24.713Z,49.02
2019-05-07T17:15:26.263Z,49.02
2019-05-07T17:20:28.040Z,49.07
2019-05-07T17:25:38.421Z,49.11
2019-05-07T17:30:41.915Z,49.19
2019-05-07T17:35:45.959Z,49.20
2019-05-07T17:40:47.008Z,49.27
2019-05-07T17:45:48.562Z,49.38
2019-05-07T17:51:09.878Z,49.45
2019-05-07T17:56:12.757Z,49.48
2019-05-07T18:01:14.474Z,49.50
2019-05-07T18:06:16.163Z,49.49
2019-05-07T18:11:21.357Z,49.56
2019-05-07T18:16:27.910Z,49.65
2019-05-07T18:21:29.448Z,49.79
2019-05-07T18:26:33.777Z,49.93
2019-05-07T18:31:56.401Z,49.98
2019-05-07T18:36:58.135Z,50.04
2019-05-07T18:41:59.722Z,50.06
2019-05-07T18:47:02.373Z,50.17
2019-05-07T18:52:04.073Z,50.32
2019-05-07T18:57:05.648Z,50.48
2019-05-07T19:02:07.831Z,50.63
2019-05-07T19:07:09.490Z,50.78
2019-05-07T19:12:13.065Z,50.93
2019-05-07T19:17:15.004Z,51.14
2019-05-07T19:22:16.571Z,51.20
2019-05-07T19:27:18.137Z,51.23
2019-05-07T19:32:19.719Z,51.53
2019-05-07T19:37:22.395Z,51.65
2019-05-07T19:42:24.083Z,51.49
2019-05-07T19:47:25.779Z,51.57
2019-05-07T19:52:27.451Z,51.89
2019-05-07T19:57:33.339Z,51.78
2019-05-07T20:02:40.512Z,51.82
2019-05-07T20:07:42.378Z,51.87
2019-05-07T20:12:43.947Z,52.04
2019-05-07T20:17:45.476Z,52.15
2019-05-07T20:22:47.005Z,52.15
2019-05-07T20:27:48.682Z,52.22
2019-05-07T20:32:52.190Z,52.39
2019-05-07T20:37:53.697Z,52.42
2019-05-07T20:42:55.242Z,52.49
2019-05-07T20:47:56.798Z,52.63
2019-05-07T20:52:58.339Z,52.71
2019-05-07T20:57:59.862Z,52.86
2019-05-07T21:03:19.557Z,52.95
2019-05-07T21:08:22.725Z,52.99
2019-05-07T21:13:30.944Z,53.16
2019-05-07T21:18:28.200Z,53.55
2019-05-07T21:23:29.717Z,53.67
2019-05-07T21:28:32.401Z,53.70
2019-05-07T21:33:34.130Z,53.72
2019-05-07T21:38:35.768Z,53.82
2019-05-07T21:43:37.302Z,53.78
2019-05-07T21:48:38.890Z,53.69
2019-05-07T21:53:54.086Z,54.06
2019-05-07T21:59:03.106Z,54.23
2019-05-07T22:04:04.914Z,54.34
2019-05-07T22:09:08.377Z,54.43
2019-05-07T22:14:10.056Z,54.46
2019-05-07T22:19:12.217Z,54.53
2019-05-07T22:24:15.211Z,54.55
2019-05-07T22:29:17.129Z,54.70
2019-05-07T22:34:32.568Z,54.74
2019-05-07T22:39:34.150Z,54.70
2019-05-07T22:44:35.743Z,54.81
2019-05-07T22:49:37.322Z,54.83
2019-05-07T22:54:38.909Z,55.19
2019-05-07T22:59:40.490Z,55.48
2019-05-07T23:04:43.140Z,55.64
2019-05-07T23:09:45.050Z,55.76
2019-05-07T23:14:46.601Z,55.75
2019-05-07T23:19:52.206Z,55.79
2019-05-07T23:24:53.050Z,55.92
2019-05-07T23:29:54.799Z,56.04
2019-05-07T23:34:56.500Z,56.09
2019-05-07T23:40:02.928Z,56.14
2019-05-07T23:45:04.687Z,56.24
2019-05-07T23:50:06.347Z,56.34
2019-05-07T23:55:08.108Z,56.37
